Time;durP1;ratioP1;P1;durP2;ratioP2;P2;SDS_P1;SDS_P2;PMS_P1;PMS_P2;Temp;Humidity;BMP_temperature;BMP_pressure;BME280_temperature;BME280_humidity;BME280_pressure;Samples;Min_cycle;Max_cycle;Signal;HPM_P1;HPM_P2
2023/10/01 00:00:20;;;;;;;7.15;4.60;;;;;;;;;;4980484;28;20193;-70
2023/10/01 00:02:51;;;;;;;12.40;4.88;;;;;;;;;;4980284;28;20107;-70
2023/10/01 00:05:17;;;;;;;10.32;4.30;;;;;;;;;;4982011;28;20137;-70
2023/10/01 00:07:43;;;;;;;8.75;4.43;;;;;;;;;;4981086;28;20145;-70
2023/10/01 00:10:12;;;;;;;14.30;4.90;;;;;;;;;;4980833;28;20081;-71
2023/10/01 00:12:38;;;;;;;14.10;4.97;;;;;;;;;;4979104;28;20050;-72
2023/10/01 00:15:10;;;;;;;9.88;5.20;;;;;;;;;;4980778;28;20053;-71
2023/10/01 00:17:38;;;;;;;8.38;4.90;;;;;;;;;;4980085;28;20145;-71
2023/10/01 00:22:52;;;;;;;12.73;5.55;;;;;;;;;;4979960;28;20042;-70
2023/10/01 00:25:18;;;;;;;8.95;4.45;;;;;;;;;;4979522;28;20053;-70
2023/10/01 00:27:45;;;;;;;8.93;4.63;;;;;;;;;;4978377;28;20129;-72
2023/10/01 00:30:11;;;;;;;8.73;4.78;;;;;;;;;;4979720;28;20229;-71
2023/10/01 00:32:38;;;;;;;10.77;4.55;;;;;;;;;;4982004;28;20050;-71
2023/10/01 00:35:04;;;;;;;12.65;5.05;;;;;;;;;;4978429;28;20046;-70
2023/10/01 00:37:30;;;;;;;9.25;4.78;;;;;;;;;;4972111;28;20420;-71
2023/10/01 00:39:59;;;;;;;11.55;4.90;;;;;;;;;;4980718;28;20061;-70
2023/10/01 00:42:26;;;;;;;10.70;4.75;;;;;;;;;;4980335;28;20042;-71
2023/10/01 00:44:53;;;;;;;7.95;4.90;;;;;;;;;;4980017;28;20057;-71
2023/10/01 00:47:21;;;;;;;13.20;5.38;;;;;;;;;;4980024;28;20047;-70
2023/10/01 00:49:47;;;;;;;13.50;4.78;;;;;;;;;;4995845;28;20050;-70
2023/10/01 00:52:14;;;;;;;8.70;4.82;;;;;;;;;;4996763;28;20557;-71
2023/10/01 00:54:39;;;;;;;13.43;5.75;;;;;;;;;;4979782;28;20047;-71
2023/10/01 00:57:04;;;;;;;14.50;5.50;;;;;;;;;;4980651;28;20046;-70
2023/10/01 00:59:32;;;;;;;8.77;4.57;;;;;;;;;;4988483;28;20136;-71
2023/10/01 01:01:59;;;;;;;11.70;5.35;;;;;;;;;;4981990;28;20054;-71
2023/10/01 01:04:28;;;;;;;10.07;5.22;;;;;;;;;;4987604;28;20057;-71
2023/10/01 01:06:56;;;;;;;12.65;6.07;;;;;;;;;;4981771;28;20053;-72
2023/10/01 01:09:22;;;;;;;13.68;6.00;;;;;;;;;;4996984;28;20137;-72
2023/10/01 01:11:47;;;;;;;16.52;7.00;;;;;;;;;;4980599;28;20146;-71
2023/10/01 01:14:13;;;;;;;15.25;6.93;;;;;;;;;;4981669;28;20057;-71
2023/10/01 01:16:40;;;;;;;11.95;5.93;;;;;;;;;;4979111;28;20050;-71
2023/10/01 01:19:09;;;;;;;13.65;5.82;;;;;;;;;;4979662;28;20121;-70
2023/10/01 01:21:34;;;;;;;13.15;5.78;;;;;;;;;;4978708;28;20245;-69
2023/10/01 01:24:03;;;;;;;11.48;5.38;;;;;;;;;;4994412;28;20638;-69
2023/10/01 01:26:29;;;;;;;10.35;5.03;;;;;;;;;;4996387;28;20050;-70
2023/10/01 01:28:54;;;;;;;10.88;5.45;;;;;;;;;;4981260;28;20046;-70
2023/10/01 01:31:26;;;;;;;15.07;5.93;;;;;;;;;;4995926;28;20117;-71
2023/10/01 01:33:56;;;;;;;10.48;5.10;;;;;;;;;;4979120;28;20050;-71
2023/10/01 01:36:22;;;;;;;10.65;5.25;;;;;;;;;;4977426;28;20046;-71
2023/10/01 01:39:12;;;;;;;16.20;5.40;;;;;;;;;;4974195;28;20049;-71
2023/10/01 01:41:42;;;;;;;9.75;4.85;;;;;;;;;;4979464;28;20888;-71
2023/10/01 01:44:10;;;;;;;12.45;5.75;;;;;;;;;;4979628;28;20046;-71
2023/10/01 01:46:35;;;;;;;11.55;5.25;;;;;;;;;;4977812;28;20487;-71
2023/10/01 01:49:01;;;;;;;9.15;4.85;;;;;;;;;;4978264;28;20077;-71
2023/10/01 01:51:28;;;;;;;12.88;5.00;;;;;;;;;;4994982;28;20056;-71
2023/10/01 01:53:56;;;;;;;9.65;4.80;;;;;;;;;;4978838;28;20074;-71
2023/10/01 01:56:21;;;;;;;11.55;5.30;;;;;;;;;;4970826;28;20089;-70
2023/10/01 01:58:47;;;;;;;12.90;4.30;;;;;;;;;;4994094;28;20313;-71
2023/10/01 02:03:44;;;;;;;8.50;4.63;;;;;;;;;;4978340;28;20057;-70
2023/10/01 02:06:10;;;;;;;8.50;3.83;;;;;;;;;;4986315;28;20394;-71
2023/10/01 02:08:49;;;;;;;10.07;4.70;;;;;;;;;;4986899;28;20512;-71
2023/10/01 02:11:16;;;;;;;8.35;3.97;;;;;;;;;;5000039;28;20499;-71
2023/10/01 02:13:45;;;;;;;12.10;4.68;;;;;;;;;;4970359;28;20054;-71
2023/10/01 02:18:57;;;;;;;9.02;4.70;;;;;;;;;;4981072;28;20607;-71
2023/10/01 02:21:42;;;;;;;10.30;4.55;;;;;;;;;;4981664;28;20093;-71
2023/10/01 02:24:13;;;;;;;8.18;4.53;;;;;;;;;;4981723;28;20038;-71
2023/10/01 02:26:39;;;;;;;11.70;5.15;;;;;;;;;;4967523;28;20400;-73
2023/10/01 02:29:05;;;;;;;9.90;4.97;;;;;;;;;;4979998;28;20078;-72
2023/10/01 02:31:34;;;;;;;10.68;4.53;;;;;;;;;;4978336;28;20570;-72
2023/10/01 02:34:01;;;;;;;9.57;5.13;;;;;;;;;;4980631;28;20085;-72
2023/10/01 02:36:30;;;;;;;17.13;5.90;;;;;;;;;;4982510;28;20046;-72
2023/10/01 02:38:56;;;;;;;15.50;6.57;;;;;;;;;;4981827;28;20035;-70
2023/10/01 02:41:26;;;;;;;10.73;5.50;;;;;;;;;;4998828;28;20659;-69
2023/10/01 02:43:52;;;;;;;11.23;5.40;;;;;;;;;;4997832;28;20048;-69
2023/10/01 02:46:26;;;;;;;14.50;5.53;;;;;;;;;;4982578;28;20054;-70
2023/10/01 02:48:59;;;;;;;10.23;4.63;;;;;;;;;;4980501;28;20133;-70
2023/10/01 02:51:37;;;;;;;11.32;5.28;;;;;;;;;;4988237;28;20495;-70
2023/10/01 02:54:08;;;;;;;9.98;4.57;;;;;;;;;;4998085;28;20060;-69
2023/10/01 02:56:52;;;;;;;12.35;5.15;;;;;;;;;;4982310;28;20061;-70
2023/10/01 02:59:19;;;;;;;11.75;5.18;;;;;;;;;;4989467;28;20046;-70
2023/10/01 03:01:47;;;;;;;13.27;6.28;;;;;;;;;;4981011;28;20054;-70
2023/10/01 03:04:17;;;;;;;14.10;5.10;;;;;;;;;;4981377;28;20085;-70
2023/10/01 03:06:53;;;;;;;12.90;4.95;;;;;;;;;;4980418;28;20088;-70
2023/10/01 03:09:29;;;;;;;8.75;4.75;;;;;;;;;;4980609;28;20057;-70
2023/10/01 03:12:24;;;;;;;11.95;4.97;;;;;;;;;;4982474;28;20042;-70
2023/10/01 03:14:43;;;;;;;9.55;4.78;;;;;;;;;;4991519;28;20495;-71
2023/10/01 03:17:17;;;;;;;10.18;4.82;;;;;;;;;;4982526;28;20054;-71
2023/10/01 03:19:46;;;;;;;11.10;4.80;;;;;;;;;;4981020;28;20057;-71
2023/10/01 03:22:22;;;;;;;12.82;4.72;;;;;;;;;;4981698;28;20046;-71
2023/10/01 03:24:48;;;;;;;9.40;5.15;;;;;;;;;;4982054;28;20049;-71
2023/10/01 03:27:24;;;;;;;10.88;5.20;;;;;;;;;;4994271;28;20174;-71
2023/10/01 03:29:54;;;;;;;9.20;4.82;;;;;;;;;;4982215;28;20582;-71
2023/10/01 03:32:29;;;;;;;11.93;5.40;;;;;;;;;;4981041;28;20051;-71
2023/10/01 03:34:56;;;;;;;11.07;5.05;;;;;;;;;;4984409;28;20042;-71
2023/10/01 03:37:27;;;;;;;10.00;5.25;;;;;;;;;;4981878;28;20042;-71
2023/10/01 03:40:07;;;;;;;14.77;5.68;;;;;;;;;;4982707;28;20534;-70
2023/10/01 03:42:36;;;;;;;7.55;4.28;;;;;;;;;;4982988;28;20047;-71
2023/10/01 03:47:41;;;;;;;14.30;5.38;;;;;;;;;;4983650;28;20109;-70
2023/10/01 03:50:09;;;;;;;13.15;5.40;;;;;;;;;;4982767;28;20050;-70
2023/10/01 03:52:39;;;;;;;8.30;5.13;;;;;;;;;;4983507;28;20069;-71
2023/10/01 03:55:28;;;;;;;12.07;5.45;;;;;;;;;;4982735;28;20116;-71
2023/10/01 03:58:05;;;;;;;12.38;6.00;;;;;;;;;;4982182;28;20044;-71
2023/10/01 04:00:41;;;;;;;12.68;5.35;;;;;;;;;;4982018;28;20053;-71
2023/10/01 04:03:13;;;;;;;13.02;5.75;;;;;;;;;;4982133;28;20487;-71
2023/10/01 04:05:46;;;;;;;10.63;5.20;;;;;;;;;;4979813;28;20116;-70
2023/10/01 04:08:12;;;;;;;15.48;5.47;;;;;;;;;;4981687;28;20133;-71
2023/10/01 04:10:38;;;;;;;9.35;5.10;;;;;;;;;;4979894;28;20074;-71
2023/10/01 04:13:20;;;;;;;10.70;4.93;;;;;;;;;;4981221;28;20054;-71
2023/10/01 04:15:49;;;;;;;9.48;5.05;;;;;;;;;;4983443;28;20050;-70
2023/10/01 04:21:12;;;;;;;10.85;5.00;;;;;;;;;;4980197;28;20050;-71
2023/10/01 04:23:48;;;;;;;11.77;5.07;;;;;;;;;;4975331;28;20050;-71
2023/10/01 04:26:17;;;;;;;13.00;5.03;;;;;;;;;;4974787;28;20567;-70
2023/10/01 04:28:45;;;;;;;9.43;5.18;;;;;;;;;;4977240;28;20057;-71
2023/10/01 04:31:18;;;;;;;12.98;5.47;;;;;;;;;;4979152;28;20090;-71
2023/10/01 04:33:47;;;;;;;9.55;4.85;;;;;;;;;;4979661;28;21053;-70
2023/10/01 04:36:16;;;;;;;12.57;5.55;;;;;;;;;;4979955;28;20483;-71
2023/10/01 04:38:45;;;;;;;13.70;5.35;;;;;;;;;;4978746;28;20085;-71
2023/10/01 04:41:18;;;;;;;8.85;4.72;;;;;;;;;;4979889;28;20046;-71
2023/10/01 04:44:06;;;;;;;14.45;5.88;;;;;;;;;;4979320;28;20054;-72
2023/10/01 04:46:37;;;;;;;13.25;5.55;;;;;;;;;;4980263;28;20050;-71
2023/10/01 04:49:08;;;;;;;9.85;5.03;;;;;;;;;;4980471;28;20495;-72
2023/10/01 04:51:47;;;;;;;10.77;5.27;;;;;;;;;;4979870;28;20123;-72
2023/10/01 04:54:21;;;;;;;8.05;5.20;;;;;;;;;;4981057;28;20088;-72
2023/10/01 04:56:48;;;;;;;9.70;5.07;;;;;;;;;;4979858;28;20141;-71
2023/10/01 04:59:15;;;;;;;14.93;5.97;;;;;;;;;;4978586;28;21087;-70
2023/10/01 05:01:41;;;;;;;11.95;6.00;;;;;;;;;;4979065;28;20053;-71
2023/10/01 05:04:11;;;;;;;10.93;5.93;;;;;;;;;;4980127;28;20046;-71
2023/10/01 05:06:37;;;;;;;12.27;5.78;;;;;;;;;;4980066;28;20045;-72
2023/10/01 05:09:07;;;;;;;11.30;6.22;;;;;;;;;;4979199;28;20428;-72
2023/10/01 05:11:33;;;;;;;12.43;4.70;;;;;;;;;;4978682;28;20076;-72
2023/10/01 05:13:58;;;;;;;8.80;5.22;;;;;;;;;;4979041;28;20487;-72
2023/10/01 05:16:28;;;;;;;9.23;5.20;;;;;;;;;;4978382;28;20042;-70
2023/10/01 05:19:10;;;;;;;10.02;5.13;;;;;;;;;;4978743;28;20072;-71
2023/10/01 05:21:49;;;;;;;12.10;5.88;;;;;;;;;;4978680;28;20085;-70
2023/10/01 05:24:34;;;;;;;19.80;5.20;;;;;;;;;;4977167;28;20038;-71
2023/10/01 05:27:09;;;;;;;11.75;5.95;;;;;;;;;;4976258;28;20107;-71
2023/10/01 05:29:39;;;;;;;16.25;5.75;;;;;;;;;;4976981;28;20168;-72
2023/10/01 05:32:05;;;;;;;9.07;5.30;;;;;;;;;;4978956;28;20966;-72
2023/10/01 05:34:33;;;;;;;16.65;5.82;;;;;;;;;;4961197;28;20502;-71
2023/10/01 05:37:08;;;;;;;10.52;5.28;;;;;;;;;;4977014;28;20046;-71
2023/10/01 05:39:55;;;;;;;8.88;5.13;;;;;;;;;;4977819;28;20137;-70
2023/10/01 05:42:28;;;;;;;13.20;5.57;;;;;;;;;;4978893;28;20056;-71
2023/10/01 05:44:59;;;;;;;12.98;5.90;;;;;;;;;;4976065;28;20042;-72
2023/10/01 05:47:41;;;;;;;12.60;6.22;;;;;;;;;;4977888;28;20034;-72
2023/10/01 05:50:13;;;;;;;10.95;5.38;;;;;;;;;;4978813;28;20049;-71
2023/10/01 05:52:41;;;;;;;10.70;5.82;;;;;;;;;;4978699;28;20056;-72
2023/10/01 05:55:08;;;;;;;12.95;5.53;;;;;;;;;;4975883;28;20050;-72
2023/10/01 05:57:34;;;;;;;14.63;5.97;;;;;;;;;;4976372;28;20132;-72
2023/10/01 06:00:00;;;;;;;13.00;6.05;;;;;;;;;;4976804;28;20088;-71
2023/10/01 06:02:47;;;;;;;15.15;7.00;;;;;;;;;;4976531;28;20043;-72
2023/10/01 06:05:32;;;;;;;12.40;5.47;;;;;;;;;;4989829;28;20050;-72
2023/10/01 06:07:58;;;;;;;15.15;5.43;;;;;;;;;;4977540;28;20051;-72
2023/10/01 06:10:27;;;;;;;9.38;5.50;;;;;;;;;;4980630;28;20385;-73
2023/10/01 06:12:56;;;;;;;8.63;5.00;;;;;;;;;;4981237;28;20061;-72
2023/10/01 06:15:24;;;;;;;9.23;5.18;;;;;;;;;;4983347;28;20057;-72
2023/10/01 06:17:51;;;;;;;9.00;4.80;;;;;;;;;;4984287;28;21016;-71
2023/10/01 06:20:26;;;;;;;9.85;5.35;;;;;;;;;;4984125;28;20459;-71
2023/10/01 06:22:55;;;;;;;12.65;5.93;;;;;;;;;;4983345;28;20046;-72
2023/10/01 06:25:37;;;;;;;9.23;5.20;;;;;;;;;;4982632;28;20109;-73
2023/10/01 06:28:10;;;;;;;12.70;5.60;;;;;;;;;;4983297;28;21058;-72
2023/10/01 06:30:43;;;;;;;12.73;5.22;;;;;;;;;;4983597;28;20069;-72
2023/10/01 06:33:24;;;;;;;15.15;6.15;;;;;;;;;;4982183;28;20069;-71
2023/10/01 06:36:15;;;;;;;17.48;5.80;;;;;;;;;;4995371;28;20517;-71
2023/10/01 06:38:37;;;;;;;11.88;5.20;;;;;;;;;;4981290;28;20058;-71
2023/10/01 06:41:06;;;;;;;12.90;5.25;;;;;;;;;;4979028;28;20058;-71
2023/10/01 06:43:32;;;;;;;13.57;5.03;;;;;;;;;;4981779;28;20050;-71
2023/10/01 06:45:59;;;;;;;13.13;5.60;;;;;;;;;;4981981;28;20046;-71
2023/10/01 06:48:27;;;;;;;14.25;5.95;;;;;;;;;;4981472;28;20515;-72
2023/10/01 06:50:53;;;;;;;15.02;6.20;;;;;;;;;;4980103;28;20046;-71
2023/10/01 06:53:20;;;;;;;15.48;6.55;;;;;;;;;;4979739;28;20472;-71
2023/10/01 06:55:47;;;;;;;17.52;6.35;;;;;;;;;;4978003;28;20403;-71
2023/10/01 06:58:13;;;;;;;13.98;6.05;;;;;;;;;;4978502;28;20038;-72
2023/10/01 07:00:41;;;;;;;15.30;6.13;;;;;;;;;;4976522;28;20096;-71
2023/10/01 07:03:22;;;;;;;19.65;6.93;;;;;;;;;;4961508;28;20546;-70
2023/10/01 07:05:55;;;;;;;11.35;5.63;;;;;;;;;;4961010;28;20042;-70
2023/10/01 07:08:32;;;;;;;14.90;6.45;;;;;;;;;;4975502;28;20078;-70
2023/10/01 07:11:11;;;;;;;20.20;6.90;;;;;;;;;;4976756;28;20045;-71
2023/10/01 07:13:38;;;;;;;14.98;6.15;;;;;;;;;;4981914;28;20046;-71
2023/10/01 07:16:03;;;;;;;17.98;6.82;;;;;;;;;;4976523;28;20086;-71
2023/10/01 07:18:30;;;;;;;16.95;6.68;;;;;;;;;;4975214;28;20088;-71
2023/10/01 07:21:00;;;;;;;13.18;6.28;;;;;;;;;;4976095;28;20042;-70
2023/10/01 07:23:26;;;;;;;16.05;6.78;;;;;;;;;;4976613;28;20037;-71
2023/10/01 07:26:01;;;;;;;19.80;6.65;;;;;;;;;;4977020;28;20046;-71
2023/10/01 07:28:26;;;;;;;19.00;7.50;;;;;;;;;;4976699;28;20530;-70
2023/10/01 07:30:56;;;;;;;19.38;6.78;;;;;;;;;;4975994;28;20050;-70
2023/10/01 07:33:22;;;;;;;22.67;7.63;;;;;;;;;;4977129;28;20057;-70
2023/10/01 07:36:01;;;;;;;17.83;7.35;;;;;;;;;;4976755;28;20526;-69
2023/10/01 07:38:32;;;;;;;17.33;6.70;;;;;;;;;;4977282;28;20080;-71
2023/10/01 07:40:58;;;;;;;17.58;7.47;;;;;;;;;;4976611;28;20100;-70
2023/10/01 07:43:27;;;;;;;20.65;7.22;;;;;;;;;;4978223;28;20042;-70
2023/10/01 07:45:58;;;;;;;17.88;7.43;;;;;;;;;;4976257;28;20048;-72
2023/10/01 07:48:27;;;;;;;15.93;6.90;;;;;;;;;;4979681;28;20093;-72
2023/10/01 07:50:56;;;;;;;17.50;7.88;;;;;;;;;;4977874;28;20129;-72
2023/10/01 07:53:32;;;;;;;17.73;7.15;;;;;;;;;;4980822;28;20057;-71
2023/10/01 07:56:02;;;;;;;15.70;7.20;;;;;;;;;;4977023;28;20049;-71
2023/10/01 07:58:47;;;;;;;15.93;7.18;;;;;;;;;;4975415;28;20042;-71
2023/10/01 08:04:06;;;;;;;20.60;7.18;;;;;;;;;;4976717;28;20507;-71
2023/10/01 08:06:34;;;;;;;17.87;7.47;;;;;;;;;;4966750;28;20100;-71
2023/10/01 08:09:08;;;;;;;18.33;7.55;;;;;;;;;;4977081;28;20054;-70
2023/10/01 08:14:20;;;;;;;23.75;7.75;;;;;;;;;;4978365;28;20035;-72
2023/10/01 08:16:51;;;;;;;16.95;7.20;;;;;;;;;;4978609;28;20065;-71
2023/10/01 08:19:20;;;;;;;16.83;7.07;;;;;;;;;;4976461;28;20101;-73
2023/10/01 08:21:53;;;;;;;17.85;7.05;;;;;;;;;;4981476;28;20855;-71
2023/10/01 08:24:20;;;;;;;19.13;7.10;;;;;;;;;;4980500;28;20746;-72
2023/10/01 08:26:57;;;;;;;14.60;5.78;;;;;;;;;;4977123;28;20595;-72
2023/10/01 08:29:59;;;;;;;15.23;6.57;;;;;;;;;;4993144;28;20141;-73
2023/10/01 08:32:15;;;;;;;;;;;;;;;;;;4972488;28;20105;-72
2023/10/01 08:35:01;;;;;;;19.60;6.90;;;;;;;;;;4979547;28;19922;-71
2023/10/01 08:37:31;;;;;;;16.75;6.50;;;;;;;;;;4990076;28;20046;-72
2023/10/01 08:40:00;;;;;;;15.20;7.18;;;;;;;;;;4992525;28;20073;-72
2023/10/01 08:42:29;;;;;;;18.17;6.93;;;;;;;;;;4976900;28;20042;-72
2023/10/01 08:45:03;;;;;;;18.23;6.68;;;;;;;;;;4977903;28;20137;-71
2023/10/01 08:47:35;;;;;;;17.25;7.40;;;;;;;;;;4978198;28;20038;-70
2023/10/01 08:52:57;;;;;;;22.27;8.55;;;;;;;;;;4977585;28;20062;-71
2023/10/01 08:55:39;;;;;;;17.20;7.20;;;;;;;;;;4978820;28;20446;-71
2023/10/01 08:58:15;;;;;;;18.13;7.35;;;;;;;;;;4976367;28;20042;-70
2023/10/01 09:00:48;;;;;;;14.88;7.28;;;;;;;;;;4978497;28;20054;-73
2023/10/01 09:03:26;;;;;;;17.17;7.20;;;;;;;;;;4990440;28;20491;-72
2023/10/01 09:06:24;;;;;;;16.05;7.05;;;;;;;;;;4983294;28;20053;-73
2023/10/01 09:08:54;;;;;;;21.15;7.43;;;;;;;;;;4977687;28;20052;-72
2023/10/01 09:11:32;;;;;;;14.57;6.40;;;;;;;;;;4978132;28;20153;-72
2023/10/01 09:13:58;;;;;;;16.85;6.85;;;;;;;;;;4977620;28;20054;-71
2023/10/01 09:16:34;;;;;;;15.35;6.53;;;;;;;;;;4978838;28;20181;-72
2023/10/01 09:19:03;;;;;;;18.98;7.03;;;;;;;;;;4977361;28;20053;-72
2023/10/01 09:21:40;;;;;;;16.08;6.85;;;;;;;;;;4978682;28;20053;-72
2023/10/01 09:24:34;;;;;;;17.50;6.97;;;;;;;;;;4974623;28;20072;-72
2023/10/01 09:27:21;;;;;;;18.52;6.68;;;;;;;;;;4975172;28;20137;-72
2023/10/01 09:29:56;;;;;;;18.00;7.00;;;;;;;;;;4975762;28;21169;-73
2023/10/01 09:32:49;;;;;;;18.88;6.75;;;;;;;;;;4974409;28;20038;-70
2023/10/01 09:35:30;;;;;;;12.57;5.65;;;;;;;;;;4987580;28;20057;-69
2023/10/01 09:38:13;;;;;;;15.27;6.53;;;;;;;;;;4977238;28;20039;-71
2023/10/01 09:40:44;;;;;;;18.40;7.28;;;;;;;;;;4975546;28;20321;-74
2023/10/01 09:43:18;;;;;;;12.35;5.80;;;;;;;;;;4974904;28;20082;-71
2023/10/01 09:45:51;;;;;;;13.52;6.57;;;;;;;;;;4979571;28;20050;-70
2023/10/01 09:48:31;;;;;;;14.50;6.63;;;;;;;;;;4979372;28;20042;-71
2023/10/01 09:51:08;;;;;;;18.13;6.30;;;;;;;;;;4979443;28;20050;-72
2023/10/01 09:53:51;;;;;;;17.95;6.72;;;;;;;;;;4978540;28;20531;-72
2023/10/01 09:56:29;;;;;;;13.07;6.15;;;;;;;;;;4979307;28;20054;-71
2023/10/01 09:59:07;;;;;;;13.50;6.25;;;;;;;;;;4978617;28;20068;-71
2023/10/01 10:01:38;;;;;;;15.77;6.20;;;;;;;;;;4980656;28;20403;-72
2023/10/01 10:04:08;;;;;;;14.60;6.77;;;;;;;;;;4978651;28;20050;-72
2023/10/01 10:06:35;;;;;;;16.97;7.10;;;;;;;;;;4979735;28;20284;-71
2023/10/01 10:09:03;;;;;;;14.02;6.68;;;;;;;;;;4981870;28;20046;-71
2023/10/01 10:11:40;;;;;;;17.25;6.68;;;;;;;;;;4979788;28;20124;-72
2023/10/01 10:14:27;;;;;;;14.07;6.60;;;;;;;;;;4981350;28;20045;-71
2023/10/01 10:17:38;;;;;;;15.27;6.43;;;;;;;;;;4982103;28;20097;-71
2023/10/01 10:20:24;;;;;;;16.55;6.30;;;;;;;;;;4977073;28;20070;-70
2023/10/01 10:23:16;;;;;;;16.65;7.05;;;;;;;;;;4982378;28;20105;-71
2023/10/01 10:25:43;;;;;;;17.35;6.82;;;;;;;;;;4983828;28;20086;-71
2023/10/01 10:28:09;;;;;;;16.70;6.93;;;;;;;;;;4985804;28;20940;-71
2023/10/01 10:30:40;;;;;;;15.57;6.95;;;;;;;;;;4984220;28;20065;-71
2023/10/01 10:33:15;;;;;;;16.58;7.00;;;;;;;;;;4981189;28;20523;-71
2023/10/01 10:35:47;;;;;;;13.90;7.03;;;;;;;;;;4982291;28;20057;-71
2023/10/01 10:38:52;;;;;;;16.90;7.13;;;;;;;;;;4980861;28;20777;-71
2023/10/01 10:41:19;;;;;;;16.77;7.28;;;;;;;;;;4975207;28;20089;-70
2023/10/01 10:44:08;;;;;;;14.77;6.50;;;;;;;;;;4980579;28;20049;-72
2023/10/01 10:47:01;;;;;;;13.98;6.78;;;;;;;;;;4970907;28;20052;-71
2023/10/01 10:49:49;;;;;;;15.02;7.07;;;;;;;;;;4993288;28;20510;-72
2023/10/01 10:52:31;;;;;;;16.42;7.22;;;;;;;;;;4979664;28;20150;-72
2023/10/01 10:55:16;;;;;;;15.63;6.90;;;;;;;;;;4977868;28;20048;-73
2023/10/01 10:57:48;;;;;;;14.73;7.05;;;;;;;;;;4979094;28;20050;-72
2023/10/01 11:00:24;;;;;;;17.52;6.40;;;;;;;;;;4979089;28;20074;-73
2023/10/01 11:02:57;;;;;;;19.13;7.13;;;;;;;;;;4978791;28;20046;-73
2023/10/01 11:05:33;;;;;;;20.27;7.30;;;;;;;;;;4977285;28;20038;-71
2023/10/01 11:08:00;;;;;;;15.90;6.97;;;;;;;;;;4979584;28;20058;-71
2023/10/01 11:10:47;;;;;;;16.40;6.25;;;;;;;;;;4977895;28;20073;-71
2023/10/01 11:13:13;;;;;;;14.00;6.25;;;;;;;;;;4979423;28;20107;-72
2023/10/01 11:15:41;;;;;;;13.75;6.93;;;;;;;;;;4980402;28;20050;-73
2023/10/01 11:18:09;;;;;;;14.88;6.78;;;;;;;;;;4980380;28;20054;-72
2023/10/01 11:20:45;;;;;;;13.88;6.90;;;;;;;;;;4980099;28;20133;-72
2023/10/01 11:23:16;;;;;;;15.50;7.22;;;;;;;;;;4979720;28;20470;-72
2023/10/01 11:25:47;;;;;;;15.75;6.72;;;;;;;;;;4980118;28;20089;-71
2023/10/01 11:28:13;;;;;;;14.88;6.90;;;;;;;;;;4983465;28;20054;-72
2023/10/01 11:30:44;;;;;;;17.23;6.45;;;;;;;;;;4983807;28;20762;-73
2023/10/01 11:35:36;;;;;;;14.95;7.07;;;;;;;;;;4982954;28;19928;-73
2023/10/01 11:38:09;;;;;;;16.85;7.35;;;;;;;;;;4982226;28;20078;-72
2023/10/01 11:43:32;;;;;;;15.85;7.20;;;;;;;;;;4975891;28;20055;-73
2023/10/01 11:46:39;;;;;;;17.70;7.93;;;;;;;;;;4973869;28;20050;-72
2023/10/01 11:49:08;;;;;;;17.23;7.47;;;;;;;;;;4989205;28;20487;-72
2023/10/01 11:51:45;;;;;;;14.05;6.65;;;;;;;;;;4982241;28;20187;-71
2023/10/01 11:54:16;;;;;;;14.82;6.97;;;;;;;;;;4986019;28;20058;-72
2023/10/01 11:56:44;;;;;;;15.52;7.05;;;;;;;;;;4983162;28;20731;-73
2023/10/01 11:59:18;;;;;;;14.25;6.47;;;;;;;;;;4995458;28;20065;-73
2023/10/01 12:01:48;;;;;;;17.00;7.05;;;;;;;;;;4979864;28;20064;-73
2023/10/01 12:07:18;;;;;;;24.65;7.03;;;;;;;;;;4976631;28;20050;-72
2023/10/01 12:09:55;;;;;;;18.65;6.90;;;;;;;;;;4978530;28;20074;-72
2023/10/01 12:12:25;;;;;;;15.35;6.85;;;;;;;;;;4977909;28;20061;-73
2023/10/01 12:17:36;;;;;;;14.98;7.10;;;;;;;;;;4977091;28;20042;-72
2023/10/01 12:20:03;;;;;;;14.55;6.85;;;;;;;;;;4979024;28;20403;-72
2023/10/01 12:22:30;;;;;;;15.98;7.07;;;;;;;;;;4978171;28;20054;-72
2023/10/01 12:24:57;;;;;;;16.48;7.10;;;;;;;;;;4978366;28;20046;-72
2023/10/01 12:27:37;;;;;;;14.85;6.95;;;;;;;;;;4978562;28;20057;-72
2023/10/01 12:30:10;;;;;;;13.55;6.38;;;;;;;;;;4977630;28;20049;-72
2023/10/01 12:32:48;;;;;;;16.73;6.43;;;;;;;;;;4975233;28;20161;-72
2023/10/01 12:35:27;;;;;;;16.08;6.82;;;;;;;;;;4975243;28;20046;-72
2023/10/01 12:38:05;;;;;;;18.48;7.40;;;;;;;;;;4976950;28;20042;-72
2023/10/01 12:40:35;;;;;;;16.55;6.60;;;;;;;;;;4976371;28;20170;-72
2023/10/01 12:43:32;;;;;;;16.38;6.80;;;;;;;;;;4975436;28;20120;-72
2023/10/01 12:45:54;;;;;;;15.68;6.75;;;;;;;;;;4976674;28;20599;-72
2023/10/01 12:48:20;;;;;;;12.68;6.28;;;;;;;;;;4976527;28;20042;-72
2023/10/01 12:51:03;;;;;;;14.88;6.63;;;;;;;;;;4975445;28;20049;-72
2023/10/01 12:53:35;;;;;;;16.08;6.10;;;;;;;;;;4975365;28;20082;-72
2023/10/01 12:56:03;;;;;;;15.00;6.10;;;;;;;;;;4974467;28;20557;-72
2023/10/01 12:58:39;;;;;;;17.40;8.40;;;;;;;;;;4975312;28;20038;-72
2023/10/01 13:01:23;;;;;;;14.38;6.78;;;;;;;;;;4976759;28;20066;-72
2023/10/01 13:03:51;;;;;;;18.08;7.22;;;;;;;;;;4977922;28;20189;-72
2023/10/01 13:06:16;;;;;;;14.35;6.32;;;;;;;;;;4990694;28;20050;-72
2023/10/01 13:08:41;;;;;;;12.75;6.18;;;;;;;;;;4964605;28;20061;-72
2023/10/01 13:11:09;;;;;;;14.63;6.82;;;;;;;;;;4976751;28;20057;-72
2023/10/01 13:13:35;;;;;;;13.88;5.97;;;;;;;;;;4975960;28;20046;-72
2023/10/01 13:16:01;;;;;;;13.75;6.55;;;;;;;;;;4976032;28;20050;-72
2023/10/01 13:18:31;;;;;;;13.73;6.65;;;;;;;;;;4975669;28;20057;-72
2023/10/01 13:21:09;;;;;;;15.45;6.72;;;;;;;;;;4975100;28;20050;-72
2023/10/01 13:23:41;;;;;;;12.27;6.35;;;;;;;;;;4977745;28;20080;-73
2023/10/01 13:26:24;;;;;;;15.68;6.40;;;;;;;;;;4976428;28;20154;-72
2023/10/01 13:28:50;;;;;;;14.38;6.80;;;;;;;;;;4975873;28;20046;-73
2023/10/01 13:34:08;;;;;;;19.48;6.53;;;;;;;;;;4977081;28;20061;-73
2023/10/01 14:09:54;;;;;;;16.42;6.63;;;;;;;;;;4975289;28;20082;-73
2023/10/01 14:15:20;;;;;;;13.32;6.40;;;;;;;;;;4976347;28;20605;-74
2023/10/01 14:17:56;;;;;;;14.40;5.70;;;;;;;;;;4975960;28;20093;-73
2023/10/01 14:20:44;;;;;;;14.88;6.60;;;;;;;;;;4975957;28;20043;-73
2023/10/01 14:23:22;;;;;;;13.88;6.28;;;;;;;;;;4976023;28;20061;-73
2023/10/01 14:25:58;;;;;;;15.00;6.07;;;;;;;;;;4974529;28;20050;-73
2023/10/01 14:28:25;;;;;;;16.55;6.40;;;;;;;;;;4974883;28;20137;-73
2023/10/01 14:30:58;;;;;;;16.30;6.32;;;;;;;;;;4973260;28;20050;-72
2023/10/01 14:33:25;;;;;;;14.43;6.60;;;;;;;;;;4994401;28;20085;-72
2023/10/01 14:35:55;;;;;;;13.32;6.07;;;;;;;;;;4978819;28;20050;-72
2023/10/01 14:38:26;;;;;;;13.48;6.18;;;;;;;;;;4979138;28;20046;-73
2023/10/01 14:40:57;;;;;;;14.95;6.05;;;;;;;;;;4978448;28;20046;-73
2023/10/01 14:43:25;;;;;;;15.27;6.32;;;;;;;;;;4979263;28;20503;-73
2023/10/01 14:45:51;;;;;;;12.52;5.60;;;;;;;;;;4977529;28;20532;-72
2023/10/01 14:48:17;;;;;;;16.00;6.63;;;;;;;;;;4994333;28;20053;-72
2023/10/01 14:50:45;;;;;;;17.85;6.57;;;;;;;;;;4978139;28;21842;-72
2023/10/01 14:53:13;;;;;;;17.20;6.45;;;;;;;;;;4960947;28;20060;-72
2023/10/01 14:55:42;;;;;;;16.40;6.15;;;;;;;;;;4975970;28;20108;-72
2023/10/01 14:58:12;;;;;;;15.20;6.97;;;;;;;;;;4979553;28;20077;-72
2023/10/01 15:00:51;;;;;;;12.75;5.85;;;;;;;;;;4977472;28;20136;-72
2023/10/01 15:03:19;;;;;;;12.18;5.97;;;;;;;;;;4993205;28;20053;-71
2023/10/01 15:05:44;;;;;;;12.57;5.60;;;;;;;;;;4976856;28;20411;-72
2023/10/01 15:08:10;;;;;;;15.35;6.40;;;;;;;;;;4975413;28;20880;-72
2023/10/01 15:10:35;;;;;;;15.48;6.38;;;;;;;;;;4991251;28;20140;-72
2023/10/01 15:13:01;;;;;;;11.85;5.80;;;;;;;;;;4977720;28;20140;-72
2023/10/01 15:15:30;;;;;;;15.82;6.53;;;;;;;;;;4977983;28;20057;-73
2023/10/01 15:17:56;;;;;;;15.70;5.93;;;;;;;;;;4977354;28;20058;-73
2023/10/01 15:20:27;;;;;;;17.73;7.00;;;;;;;;;;4977281;28;20196;-73
2023/10/01 15:22:55;;;;;;;13.73;5.60;;;;;;;;;;4975386;28;20507;-73
2023/10/01 15:25:21;;;;;;;17.85;6.72;;;;;;;;;;4978007;28;20277;-73
2023/10/01 15:27:47;;;;;;;13.35;6.18;;;;;;;;;;4976427;28;20129;-72
2023/10/01 15:30:21;;;;;;;13.77;6.28;;;;;;;;;;4978811;28;20129;-73
2023/10/01 15:32:59;;;;;;;14.32;6.18;;;;;;;;;;4978215;28;20133;-72
2023/10/01 15:35:26;;;;;;;16.65;6.15;;;;;;;;;;4992574;28;20046;-73
2023/10/01 15:37:51;;;;;;;15.85;7.25;;;;;;;;;;4961054;28;20057;-72
2023/10/01 15:40:26;;;;;;;13.75;5.80;;;;;;;;;;4981003;28;20655;-71
2023/10/01 15:42:54;;;;;;;18.30;6.65;;;;;;;;;;4981826;28;20042;-71
2023/10/01 15:45:20;;;;;;;12.57;5.53;;;;;;;;;;4981927;28;20069;-72
2023/10/01 15:47:58;;;;;;;13.10;5.50;;;;;;;;;;4996440;28;20097;-72
2023/10/01 15:50:38;;;;;;;13.82;6.60;;;;;;;;;;4981712;28;20125;-72
2023/10/01 15:53:17;;;;;;;14.85;6.18;;;;;;;;;;4981398;28;20114;-72
2023/10/01 15:55:55;;;;;;;17.38;6.38;;;;;;;;;;4979581;28;20096;-73
2023/10/01 15:58:25;;;;;;;16.88;6.22;;;;;;;;;;4980605;28;20050;-72
2023/10/01 16:00:52;;;;;;;16.13;6.18;;;;;;;;;;4978907;28;20148;-72
2023/10/01 16:03:31;;;;;;;15.52;6.15;;;;;;;;;;4987460;28;20050;-72
2023/10/01 16:06:08;;;;;;;13.68;5.55;;;;;;;;;;4983913;28;20437;-72
2023/10/01 16:08:35;;;;;;;15.43;6.78;;;;;;;;;;4981248;28;20042;-73
2023/10/01 16:11:04;;;;;;;18.67;6.38;;;;;;;;;;4981506;28;20890;-72